createdAt,value
2022-08-22T00:00:58.391Z,18.11
2022-08-22T00:02:58.277Z,21.88
2022-08-22T00:03:11.262Z,19.35
2022-08-22T00:03:35.387Z,18.18
2022-08-22T00:06:12.188Z,18.21
2022-08-22T00:08:50.046Z,18.28
2022-08-22T00:11:25.731Z,18.31
2022-08-22T00:14:01.212Z,18.33
2022-08-22T00:16:36.234Z,18.37
2022-08-22T00:19:10.056Z,18.41
2022-08-22T00:21:43.679Z,18.44
2022-08-22T00:24:18.668Z,18.47
2022-08-22T00:26:53.088Z,18.41
2022-08-22T00:29:25.599Z,18.37
2022-08-22T00:32:01.799Z,18.38
2022-08-22T00:34:34.425Z,18.32
2022-08-22T00:37:06.452Z,18.29
2022-08-22T00:39:38.079Z,18.29
2022-08-22T00:42:30.300Z,18.26
2022-08-22T00:45:32.283Z,18.27
2022-08-22T00:48:14.546Z,18.21
2022-08-22T00:51:04.309Z,18.18
2022-08-22T00:53:41.779Z,18.19
2022-08-22T00:56:33.292Z,18.19
2022-08-22T00:59:23.973Z,18.21
2022-08-22T01:01:58.950Z,18.22
2022-08-22T01:04:36.010Z,18.18
2022-08-22T01:07:14.653Z,18.19
2022-08-22T01:09:50.643Z,18.19
2022-08-22T01:12:34.534Z,18.20
2022-08-22T01:15:05.331Z,18.17
2022-08-22T01:17:50.862Z,18.06
2022-08-22T01:21:14.802Z,18.01
2022-08-22T01:24:13.289Z,17.96
2022-08-22T01:27:16.936Z,17.94
2022-08-22T01:30:32.350Z,17.91
2022-08-22T01:33:24.232Z,17.84
2022-08-22T01:36:09.191Z,17.79
2022-08-22T01:39:04.525Z,17.75
2022-08-22T01:42:01.202Z,17.71
2022-08-22T01:44:39.725Z,17.72
2022-08-22T01:47:12.344Z,17.69
2022-08-22T01:49:44.148Z,17.65
2022-08-22T01:52:18.248Z,17.67
2022-08-22T01:54:50.876Z,17.66
2022-08-22T01:57:19.804Z,17.67
2022-08-22T01:59:50.366Z,17.59
2022-08-22T02:02:37.135Z,17.61
2022-08-22T02:05:10.732Z,17.61
2022-08-22T02:07:47.546Z,17.61
2022-08-22T02:10:21.108Z,17.61
2022-08-22T02:12:56.344Z,17.60
2022-08-22T02:15:28.967Z,17.54
2022-08-22T02:18:12.356Z,17.50
2022-08-22T02:20:44.754Z,17.42
2022-08-22T02:23:22.009Z,17.40
2022-08-22T02:26:04.960Z,17.26
2022-08-22T02:28:40.489Z,17.17
2022-08-22T02:31:34.079Z,17.17
2022-08-22T02:34:04.962Z,17.19
2022-08-22T02:36:35.887Z,17.13
2022-08-22T02:39:09.689Z,17.06
2022-08-22T02:41:47.035Z,17.00
2022-08-22T02:44:19.090Z,16.97
2022-08-22T02:46:53.032Z,16.92
2022-08-22T02:49:27.390Z,16.91
2022-08-22T02:52:00.166Z,16.95
2022-08-22T02:54:38.785Z,16.93
2022-08-22T02:57:14.317Z,16.94
2022-08-22T03:00:01.580Z,16.97
2022-08-22T03:02:35.920Z,16.95
2022-08-22T03:05:20.400Z,16.97
2022-08-22T03:07:51.918Z,16.97
2022-08-22T03:10:24.119Z,16.87
2022-08-22T03:12:59.305Z,16.82
2022-08-22T03:15:32.549Z,16.64
2022-08-22T03:18:05.404Z,16.43
2022-08-22T03:20:44.615Z,16.28
2022-08-22T03:23:17.919Z,16.17
2022-08-22T03:25:53.031Z,16.08
2022-08-22T03:28:23.599Z,16.14
2022-08-22T03:31:00.078Z,16.20
2022-08-22T03:33:30.113Z,16.25
2022-08-22T03:36:06.485Z,16.23
2022-08-22T03:38:49.153Z,16.27
2022-08-22T03:41:59.233Z,16.39
2022-08-22T03:44:56.389Z,16.42
2022-08-22T03:47:59.991Z,16.44
2022-08-22T03:50:41.691Z,16.37
2022-08-22T03:53:33.886Z,16.41
2022-08-22T03:56:26.914Z,16.39
2022-08-22T03:59:12.186Z,16.42
2022-08-22T04:02:03.864Z,16.44
2022-08-22T04:05:24.081Z,16.41
2022-08-22T04:08:21.083Z,16.41
2022-08-22T04:11:23.412Z,16.42
2022-08-22T04:14:04.665Z,16.46
2022-08-22T04:17:07.967Z,16.32
2022-08-22T04:20:01.601Z,16.24
2022-08-22T04:22:54.688Z,16.26
2022-08-22T04:25:25.534Z,16.29
2022-08-22T04:27:57.052Z,16.30
2022-08-22T04:30:28.688Z,16.27
2022-08-22T04:33:00.031Z,16.28
2022-08-22T04:35:32.768Z,16.22
2022-08-22T04:38:04.101Z,16.20
2022-08-22T04:40:35.678Z,16.20
2022-08-22T04:43:13.217Z,16.22
2022-08-22T04:45:44.766Z,16.23
2022-08-22T04:48:17.501Z,16.24
2022-08-22T04:50:50.401Z,16.18
2022-08-22T04:53:43.776Z,16.20
2022-08-22T04:56:16.769Z,16.25
2022-08-22T04:58:47.856Z,16.28
2022-08-22T05:01:18.604Z,16.33
2022-08-22T05:03:54.813Z,16.33
2022-08-22T05:06:27.214Z,16.34
2022-08-22T05:08:55.605Z,16.29
2022-08-22T05:11:24.310Z,16.29
2022-08-22T05:13:54.696Z,16.26
2022-08-22T05:16:26.180Z,16.27
2022-08-22T05:18:56.425Z,16.29
2022-08-22T05:21:28.116Z,16.25
2022-08-22T05:24:00.099Z,16.24
2022-08-22T05:26:28.776Z,16.25
2022-08-22T05:28:59.222Z,16.24
2022-08-22T05:31:30.032Z,16.27
2022-08-22T05:34:03.622Z,16.30
2022-08-22T05:36:36.285Z,16.31
2022-08-22T05:39:08.375Z,16.35
2022-08-22T05:41:38.734Z,16.37
2022-08-22T05:44:08.780Z,16.42
2022-08-22T05:46:43.252Z,16.47
2022-08-22T05:49:19.149Z,16.47
2022-08-22T05:52:00.009Z,16.51
2022-08-22T05:54:34.540Z,16.53
2022-08-22T05:57:10.003Z,16.56
2022-08-22T05:59:41.711Z,16.57
2022-08-22T06:02:13.419Z,16.57
2022-08-22T06:04:47.744Z,16.56
2022-08-22T06:07:22.154Z,16.64
2022-08-22T06:10:21.776Z,16.78
2022-08-22T06:12:59.617Z,16.87
2022-08-22T06:15:31.846Z,16.96
2022-08-22T06:18:03.392Z,17.04
2022-08-22T06:20:40.169Z,17.16
2022-08-22T06:23:09.582Z,17.27
2022-08-22T06:25:40.516Z,17.35
2022-08-22T06:28:10.016Z,17.48
2022-08-22T06:30:39.595Z,17.59
2022-08-22T06:33:12.352Z,17.69
2022-08-22T06:36:00.714Z,17.80
2022-08-22T06:38:33.502Z,17.89
2022-08-22T06:41:05.171Z,17.98
2022-08-22T06:43:38.461Z,18.09
2022-08-22T06:46:07.508Z,18.19
2022-08-22T06:48:37.262Z,18.26
2022-08-22T06:51:08.319Z,18.37
2022-08-22T06:54:18.817Z,18.55
2022-08-22T06:56:49.408Z,18.68
2022-08-22T06:59:19.333Z,18.80
2022-08-22T07:01:52.149Z,18.90
2022-08-22T07:04:23.946Z,19.04
2022-08-22T07:06:52.449Z,19.19
2022-08-22T07:09:25.682Z,19.38
2022-08-22T07:11:55.084Z,19.50
2022-08-22T07:14:30.287Z,19.66
2022-08-22T07:16:59.986Z,19.84
2022-08-22T07:19:30.440Z,20.01
2022-08-22T07:22:00.909Z,20.22
2022-08-22T07:24:32.520Z,20.41
2022-08-22T07:27:08.983Z,20.59
2022-08-22T07:29:44.237Z,20.81
2022-08-22T07:32:16.165Z,21.00
2022-08-22T07:34:54.385Z,21.26
2022-08-22T07:37:30.761Z,21.45
2022-08-22T07:40:05.224Z,21.65
2022-08-22T07:42:39.694Z,21.87
2022-08-22T07:45:10.901Z,22.05
2022-08-22T07:47:49.745Z,22.25
2022-08-22T07:50:21.912Z,22.45
2022-08-22T07:52:51.000Z,22.66
2022-08-22T07:55:23.223Z,22.87
2022-08-22T07:57:54.944Z,23.03
2022-08-22T08:00:23.721Z,23.24
2022-08-22T08:02:54.112Z,23.39
2022-08-22T08:05:23.975Z,23.59
2022-08-22T08:07:53.573Z,23.75
2022-08-22T08:10:25.328Z,23.96
2022-08-22T08:13:02.034Z,24.04
2022-08-22T08:15:32.786Z,24.14
2022-08-22T08:18:03.863Z,24.27
2022-08-22T08:20:32.137Z,24.43
2022-08-22T08:23:00.630Z,24.54
2022-08-22T08:25:32.101Z,24.67
2022-08-22T08:28:18.304Z,24.67
2022-08-22T08:30:48.218Z,24.87
2022-08-22T08:33:25.948Z,24.93
2022-08-22T08:36:02.746Z,25.03
2022-08-22T08:38:34.490Z,25.15
2022-08-22T08:41:29.589Z,25.20
2022-08-22T08:44:03.370Z,25.35
2022-08-22T08:47:02.419Z,25.51
2022-08-22T08:50:14.867Z,25.65
2022-08-22T08:53:00.973Z,25.80
2022-08-22T08:55:39.140Z,25.89
2022-08-22T08:58:21.417Z,26.05
2022-08-22T09:00:57.115Z,26.20
2022-08-22T09:03:52.290Z,26.13
2022-08-22T09:06:42.383Z,26.13
2022-08-22T09:09:25.900Z,26.18
2022-08-22T09:12:12.478Z,26.21
2022-08-22T09:14:55.773Z,26.23
2022-08-22T09:17:47.602Z,26.31
2022-08-22T09:20:37.707Z,26.43
2022-08-22T09:23:37.668Z,26.45
2022-08-22T09:26:11.112Z,26.64
2022-08-22T09:28:41.744Z,26.77
2022-08-22T09:31:47.913Z,26.83
2022-08-22T09:34:25.698Z,26.83
2022-08-22T09:37:14.191Z,26.94
2022-08-22T09:39:52.259Z,26.92
2022-08-22T09:42:22.855Z,26.99
2022-08-22T09:45:00.783Z,27.06
2022-08-22T09:47:33.767Z,27.17
2022-08-22T09:50:12.312Z,27.31
2022-08-22T09:52:57.767Z,27.42
2022-08-22T09:55:40.445Z,27.52
2022-08-22T09:58:17.478Z,27.56
2022-08-22T10:00:54.582Z,27.60
2022-08-22T10:03:34.065Z,27.69
2022-08-22T10:06:09.107Z,27.75
2022-08-22T10:08:46.039Z,27.79
2022-08-22T10:11:26.863Z,27.90
2022-08-22T10:14:01.508Z,28.01
2022-08-22T10:16:51.319Z,28.14
2022-08-22T10:19:26.201Z,28.31
2022-08-22T10:22:19.234Z,28.44
2022-08-22T10:24:51.596Z,28.47
2022-08-22T10:27:22.667Z,28.58
2022-08-22T10:30:03.493Z,28.65
2022-08-22T10:32:35.419Z,28.67
2022-08-22T10:35:15.334Z,28.70
2022-08-22T10:37:59.501Z,28.78
2022-08-22T10:40:31.985Z,28.88
2022-08-22T10:43:09.590Z,28.96
2022-08-22T10:45:41.799Z,29.05
2022-08-22T10:48:34.521Z,29.10
2022-08-22T10:51:34.196Z,29.16
2022-08-22T10:54:20.834Z,28.86
2022-08-22T10:56:53.244Z,28.91
2022-08-22T10:59:30.951Z,28.65
2022-08-22T11:02:11.281Z,28.40
2022-08-22T11:04:53.226Z,28.22
2022-08-22T11:07:48.941Z,28.01
2022-08-22T11:10:27.306Z,27.62
2022-08-22T11:13:06.997Z,27.30
2022-08-22T11:16:04.421Z,27.28
2022-08-22T11:18:51.493Z,27.26
2022-08-22T11:21:41.666Z,27.45
2022-08-22T11:24:53.907Z,27.76
2022-08-22T11:27:39.539Z,28.20
2022-08-22T11:30:10.769Z,28.49
2022-08-22T11:33:11.018Z,28.67
2022-08-22T11:35:44.249Z,28.65
2022-08-22T11:38:20.366Z,28.51
2022-08-22T11:40:59.169Z,28.24
2022-08-22T11:43:41.389Z,28.04
2022-08-22T11:46:26.651Z,27.96
2022-08-22T11:49:15.696Z,27.73
2022-08-22T11:52:06.635Z,27.46
2022-08-22T11:55:18.165Z,27.22
2022-08-22T11:57:49.156Z,27.20
2022-08-22T12:00:26.587Z,26.98
2022-08-22T12:03:23.562Z,27.00
2022-08-22T12:05:53.324Z,26.90
2022-08-22T12:08:46.262Z,26.98
2022-08-22T12:11:18.720Z,27.06
2022-08-22T12:14:05.165Z,26.90
2022-08-22T12:16:41.036Z,26.86
2022-08-22T12:19:19.114Z,26.96
2022-08-22T12:22:12.731Z,27.30
2022-08-22T12:25:02.691Z,27.64
2022-08-22T12:27:55.166Z,28.12
2022-08-22T12:30:31.503Z,28.29
2022-08-22T12:33:29.177Z,28.08
2022-08-22T12:36:31.340Z,27.83
2022-08-22T12:39:32.731Z,27.84
2022-08-22T12:42:18.788Z,28.10
2022-08-22T12:45:00.439Z,28.24
2022-08-22T12:47:37.965Z,28.16
2022-08-22T12:50:19.955Z,28.05
2022-08-22T12:53:06.124Z,28.19
2022-08-22T12:55:42.109Z,28.13
2022-08-22T12:58:18.170Z,28.05
2022-08-22T13:00:47.382Z,28.00
2022-08-22T13:03:25.515Z,27.92
2022-08-22T13:05:59.766Z,27.81
2022-08-22T13:08:30.901Z,27.65
2022-08-22T13:11:02.351Z,27.59
2022-08-22T13:13:36.978Z,27.50
2022-08-22T13:16:08.101Z,27.81
2022-08-22T13:18:44.733Z,28.15
2022-08-22T13:21:16.319Z,28.56
2022-08-22T13:23:48.579Z,28.81
2022-08-22T13:26:31.595Z,28.99
2022-08-22T13:29:24.593Z,29.34
2022-08-22T13:31:55.149Z,29.69
2022-08-22T13:34:38.464Z,29.99
2022-08-22T13:37:08.212Z,30.29
2022-08-22T13:39:41.128Z,30.19
2022-08-22T13:42:27.907Z,30.40
2022-08-22T13:45:02.686Z,30.55
2022-08-22T13:47:32.418Z,30.68
2022-08-22T13:50:09.033Z,30.76
2022-08-22T13:52:40.376Z,30.79
2022-08-22T13:55:13.706Z,30.84
2022-08-22T13:57:43.630Z,30.70
2022-08-22T14:00:56.624Z,30.66
2022-08-22T14:03:28.244Z,30.57
2022-08-22T14:06:36.787Z,30.49
2022-08-22T14:08:47.339Z,30.54
2022-08-22T14:11:24.464Z,30.64
2022-08-22T14:13:56.548Z,30.75
2022-08-22T14:16:28.432Z,30.85
2022-08-22T14:18:59.944Z,30.84
2022-08-22T14:21:40.168Z,30.88
2022-08-22T14:24:14.241Z,30.91
2022-08-22T14:26:51.813Z,30.96
2022-08-22T14:29:21.146Z,30.95
2022-08-22T14:32:04.872Z,30.84
2022-08-22T14:34:38.740Z,30.79
2022-08-22T14:37:13.589Z,30.69
2022-08-22T14:39:45.521Z,30.75
2022-08-22T14:42:17.557Z,30.67
2022-08-22T14:44:55.899Z,30.59
2022-08-22T14:47:54.273Z,30.60
2022-08-22T14:50:36.184Z,30.57
2022-08-22T14:53:08.752Z,30.67
2022-08-22T14:55:39.883Z,30.68
2022-08-22T14:58:16.095Z,30.74
2022-08-22T15:00:47.281Z,30.73
2022-08-22T15:03:25.605Z,30.72
2022-08-22T15:05:55.645Z,30.69
2022-08-22T15:08:29.408Z,30.71
2022-08-22T15:11:22.404Z,30.74
2022-08-22T15:13:58.151Z,30.67
2022-08-22T15:16:33.859Z,30.59
2022-08-22T15:19:03.010Z,30.63
2022-08-22T15:21:33.212Z,30.59
2022-08-22T15:24:14.069Z,30.42
2022-08-22T15:26:50.221Z,30.47
2022-08-22T15:29:21.558Z,30.40
2022-08-22T15:31:54.173Z,30.37
2022-08-22T15:34:25.622Z,30.38
2022-08-22T15:37:14.314Z,30.37
2022-08-22T15:40:08.580Z,30.33
2022-08-22T15:42:42.633Z,30.35
2022-08-22T15:45:21.477Z,30.33
2022-08-22T15:47:53.463Z,30.29
2022-08-22T15:50:35.177Z,30.17
2022-08-22T15:53:12.652Z,30.11
2022-08-22T15:56:15.565Z,30.03
2022-08-22T15:58:48.946Z,29.86
2022-08-22T16:01:23.698Z,29.63
2022-08-22T16:03:57.390Z,29.27
2022-08-22T16:06:43.937Z,29.04
2022-08-22T16:09:31.344Z,28.83
2022-08-22T16:12:04.172Z,28.87
2022-08-22T16:14:49.869Z,28.87
2022-08-22T16:17:46.499Z,28.93
2022-08-22T16:20:53.961Z,28.95
2022-08-22T16:23:22.900Z,28.97
2022-08-22T16:26:23.969Z,28.98
2022-08-22T16:28:58.799Z,28.97
2022-08-22T16:31:30.220Z,28.99
2022-08-22T16:34:00.199Z,28.99
2022-08-22T16:36:45.421Z,28.87
2022-08-22T16:39:29.946Z,28.86
2022-08-22T16:42:25.856Z,28.74
2022-08-22T16:44:59.804Z,28.70
2022-08-22T16:47:41.571Z,28.69
2022-08-22T16:50:27.069Z,28.64
2022-08-22T16:52:58.543Z,28.64
2022-08-22T16:55:50.336Z,28.56
2022-08-22T16:58:56.539Z,28.43
2022-08-22T17:01:44.754Z,28.32
2022-08-22T17:04:21.142Z,28.27
2022-08-22T17:07:04.169Z,28.20
2022-08-22T17:09:45.597Z,28.02
2022-08-22T17:12:21.700Z,27.98
2022-08-22T17:14:57.289Z,27.89
2022-08-22T17:17:34.711Z,27.73
2022-08-22T17:20:12.961Z,27.63
2022-08-22T17:22:50.660Z,27.53
2022-08-22T17:25:22.897Z,27.51
2022-08-22T17:27:54.712Z,27.42
2022-08-22T17:30:27.326Z,27.34
2022-08-22T17:33:12.572Z,27.28
2022-08-22T17:35:51.349Z,27.19
2022-08-22T17:38:27.181Z,27.15
2022-08-22T17:41:00.975Z,27.04
2022-08-22T17:43:44.633Z,26.96
2022-08-22T17:46:29.180Z,26.87
2022-08-22T17:49:09.140Z,26.82
2022-08-22T17:51:45.180Z,26.73
2022-08-22T17:54:16.616Z,26.65
2022-08-22T17:56:47.018Z,26.56
2022-08-22T17:59:21.676Z,26.47
2022-08-22T18:01:52.313Z,26.37
2022-08-22T18:04:26.716Z,26.31
2022-08-22T18:06:59.270Z,26.20
2022-08-22T18:09:32.309Z,26.12
2022-08-22T18:12:03.734Z,26.03
2022-08-22T18:14:34.967Z,25.95
2022-08-22T18:17:14.968Z,25.84
2022-08-22T18:19:53.093Z,25.76
2022-08-22T18:22:24.416Z,25.66
2022-08-22T18:24:55.683Z,25.54
2022-08-22T18:27:34.292Z,25.46
2022-08-22T18:30:08.017Z,25.40
2022-08-22T18:32:40.053Z,25.33
2022-08-22T18:35:18.480Z,25.28
2022-08-22T18:37:56.107Z,25.21
2022-08-22T18:40:31.377Z,25.16
2022-08-22T18:43:08.640Z,25.09
2022-08-22T18:46:03.886Z,25.01
2022-08-22T18:48:54.477Z,24.97
2022-08-22T18:51:30.655Z,24.88
2022-08-22T18:54:03.846Z,24.81
2022-08-22T18:56:54.150Z,24.70
2022-08-22T18:59:46.779Z,24.55
2022-08-22T19:02:55.703Z,24.39
2022-08-22T19:06:05.250Z,24.19
2022-08-22T19:08:53.587Z,24.08
2022-08-22T19:11:35.104Z,24.04
2022-08-22T19:14:16.417Z,24.00
2022-08-22T19:17:12.864Z,24.00
2022-08-22T19:20:08.365Z,23.99
2022-08-22T19:22:38.023Z,23.92
2022-08-22T19:25:15.704Z,23.90
2022-08-22T19:27:45.660Z,23.91
2022-08-22T19:30:43.768Z,23.83
2022-08-22T19:33:13.792Z,23.83
2022-08-22T19:35:47.397Z,23.78
2022-08-22T19:38:53.711Z,23.79
2022-08-22T19:41:46.239Z,23.73
2022-08-22T19:44:33.444Z,23.70
2022-08-22T19:47:07.281Z,23.71
2022-08-22T19:49:38.364Z,23.67
2022-08-22T19:52:13.898Z,23.63
2022-08-22T19:54:48.435Z,23.61
2022-08-22T19:57:22.102Z,23.56
2022-08-22T20:00:01.505Z,23.50
2022-08-22T20:02:37.030Z,23.46
2022-08-22T20:05:27.727Z,23.41
2022-08-22T20:08:07.883Z,23.29
2022-08-22T20:10:49.745Z,23.21
2022-08-22T20:13:32.802Z,23.18
2022-08-22T20:16:23.882Z,23.08
2022-08-22T20:19:06.356Z,23.01
2022-08-22T20:21:58.896Z,22.96
2022-08-22T20:24:41.064Z,22.92
2022-08-22T20:27:16.990Z,22.87
2022-08-22T20:29:57.381Z,22.89
2022-08-22T20:32:26.095Z,22.83
2022-08-22T20:35:19.040Z,22.77
2022-08-22T20:38:06.969Z,22.71
2022-08-22T20:40:53.533Z,22.66
2022-08-22T20:43:32.350Z,22.58
2022-08-22T20:46:19.053Z,22.49
2022-08-22T20:48:55.253Z,22.44
2022-08-22T20:51:25.188Z,22.40
2022-08-22T20:54:01.838Z,22.37
2022-08-22T20:56:51.646Z,22.29
2022-08-22T20:59:38.538Z,22.28
2022-08-22T21:02:15.682Z,22.21
2022-08-22T21:05:00.194Z,22.21
2022-08-22T21:07:35.566Z,22.19
2022-08-22T21:10:27.354Z,22.16
2022-08-22T21:13:12.834Z,22.08
2022-08-22T21:15:51.069Z,22.02
2022-08-22T21:18:32.472Z,22.00
2022-08-22T21:21:17.030Z,21.96
2022-08-22T21:23:57.407Z,21.90
2022-08-22T21:26:31.999Z,21.88
2022-08-22T21:29:08.791Z,21.84
2022-08-22T21:31:49.812Z,21.75
2022-08-22T21:34:29.396Z,21.73
2022-08-22T21:37:00.274Z,21.66
2022-08-22T21:42:13.786Z,21.62
2022-08-22T21:44:43.217Z,21.60
2022-08-22T21:47:32.512Z,21.59
2022-08-22T21:50:12.197Z,21.56
2022-08-22T21:52:41.957Z,21.52
2022-08-22T21:55:32.794Z,21.49
2022-08-22T21:58:12.914Z,21.45
2022-08-22T22:01:13.451Z,21.40
2022-08-22T22:03:44.098Z,21.36
2022-08-22T22:06:13.768Z,21.33
2022-08-22T22:08:41.661Z,21.37
2022-08-22T22:11:17.483Z,21.37
2022-08-22T22:13:45.745Z,21.35
2022-08-22T22:16:21.040Z,21.30
2022-08-22T22:18:48.928Z,21.26
2022-08-22T22:21:26.893Z,21.30
2022-08-22T22:23:58.480Z,21.28
2022-08-22T22:26:32.969Z,21.19
2022-08-22T22:29:00.909Z,21.13
2022-08-22T22:31:34.710Z,21.07
2022-08-22T22:34:02.596Z,21.08
2022-08-22T22:36:37.735Z,20.99
2022-08-22T22:39:06.266Z,20.97
2022-08-22T22:41:36.026Z,20.94
2022-08-22T22:44:05.801Z,21.00
2022-08-22T22:46:33.659Z,20.97
2022-08-22T22:49:01.574Z,20.87
2022-08-22T22:51:36.938Z,20.85
2022-08-22T22:54:05.055Z,20.82
2022-08-22T22:56:38.623Z,20.80
2022-08-22T22:59:13.656Z,20.75
2022-08-22T23:02:00.397Z,20.75
2022-08-22T23:04:28.486Z,20.75
2022-08-22T23:07:06.092Z,20.76
2022-08-22T23:09:44.708Z,20.76
2022-08-22T23:12:23.820Z,20.75
2022-08-22T23:14:51.817Z,20.75
2022-08-22T23:17:26.637Z,20.67
2022-08-22T23:19:54.505Z,20.67
2022-08-22T23:22:30.262Z,20.67
2022-08-22T23:24:58.113Z,20.72
2022-08-22T23:27:33.370Z,20.69
2022-08-22T23:30:02.248Z,20.71
2022-08-22T23:32:36.566Z,20.71
2022-08-22T23:35:04.805Z,20.73
2022-08-22T23:37:40.811Z,20.71
2022-08-22T23:40:10.507Z,20.68
2022-08-22T23:42:43.952Z,20.64
2022-08-22T23:45:12.072Z,20.67
2022-08-22T23:47:40.021Z,20.65
2022-08-22T23:50:12.288Z,20.62
2022-08-22T23:52:41.566Z,20.58
2022-08-22T23:55:16.859Z,20.47
2022-08-22T23:57:44.711Z,20.41
